sensor_id;sensor_type;location;lat;lon;timestamp;P1;durP1;ratioP1;P2;durP2;ratioP2
6342;SDS011;3204;42.698;23.298;2023-03-16T00:00:44;2.60;;;2.50;;
6342;SDS011;3204;42.698;23.298;2023-03-16T00:03:11;3.67;;;3.47;;
6342;SDS011;3204;42.698;23.298;2023-03-16T00:05:46;2.97;;;2.87;;
6342;SDS011;3204;42.698;23.298;2023-03-16T00:08:17;2.10;;;2.00;;
6342;SDS011;3204;42.698;23.298;2023-03-16T00:10:43;3.43;;;3.23;;
6342;SDS011;3204;42.698;23.298;2023-03-16T00:13:18;3.77;;;3.57;;
6342;SDS011;3204;42.698;23.298;2023-03-16T00:18:17;2.47;;;2.37;;
6342;SDS011;3204;42.698;23.298;2023-03-16T00:20:43;2.00;;;1.90;;
6342;SDS011;3204;42.698;23.298;2023-03-16T00:23:08;2.20;;;2.10;;
6342;SDS011;3204;42.698;23.298;2023-03-16T00:25:34;2.27;;;2.17;;
6342;SDS011;3204;42.698;23.298;2023-03-16T00:28:00;2.00;;;1.90;;
6342;SDS011;3204;42.698;23.298;2023-03-16T00:30:28;1.47;;;1.47;;
6342;SDS011;3204;42.698;23.298;2023-03-16T00:32:57;1.73;;;1.73;;
6342;SDS011;3204;42.698;23.298;2023-03-16T00:35:23;1.73;;;1.63;;
6342;SDS011;3204;42.698;23.298;2023-03-16T00:37:48;2.47;;;2.27;;
6342;SDS011;3204;42.698;23.298;2023-03-16T00:40:14;1.90;;;1.80;;
6342;SDS011;3204;42.698;23.298;2023-03-16T00:42:39;1.97;;;1.87;;
6342;SDS011;3204;42.698;23.298;2023-03-16T00:45:05;1.80;;;1.70;;
6342;SDS011;3204;42.698;23.298;2023-03-16T00:47:32;1.60;;;1.50;;
6342;SDS011;3204;42.698;23.298;2023-03-16T00:49:58;1.90;;;1.80;;
6342;SDS011;3204;42.698;23.298;2023-03-16T00:52:25;1.63;;;1.63;;
6342;SDS011;3204;42.698;23.298;2023-03-16T00:54:51;3.10;;;2.90;;
6342;SDS011;3204;42.698;23.298;2023-03-16T00:57:19;2.57;;;2.47;;
6342;SDS011;3204;42.698;23.298;2023-03-16T00:59:46;3.77;;;3.37;;
6342;SDS011;3204;42.698;23.298;2023-03-16T01:02:13;5.40;;;4.00;;
6342;SDS011;3204;42.698;23.298;2023-03-16T01:04:40;5.77;;;4.70;;
6342;SDS011;3204;42.698;23.298;2023-03-16T01:07:07;5.87;;;4.17;;
6342;SDS011;3204;42.698;23.298;2023-03-16T01:09:36;4.67;;;3.93;;
6342;SDS011;3204;42.698;23.298;2023-03-16T01:12:03;7.87;;;5.27;;
6342;SDS011;3204;42.698;23.298;2023-03-16T01:14:33;3.03;;;2.77;;
6342;SDS011;3204;42.698;23.298;2023-03-16T01:16:59;2.80;;;2.53;;
6342;SDS011;3204;42.698;23.298;2023-03-16T01:19:26;3.30;;;3.00;;
6342;SDS011;3204;42.698;23.298;2023-03-16T01:21:51;5.03;;;4.10;;
6342;SDS011;3204;42.698;23.298;2023-03-16T01:24:17;4.97;;;4.53;;
6342;SDS011;3204;42.698;23.298;2023-03-16T01:26:42;3.10;;;2.90;;
6342;SDS011;3204;42.698;23.298;2023-03-16T01:29:09;5.83;;;4.40;;
6342;SDS011;3204;42.698;23.298;2023-03-16T01:31:34;4.00;;;3.70;;
6342;SDS011;3204;42.698;23.298;2023-03-16T01:34:00;2.63;;;2.53;;
6342;SDS011;3204;42.698;23.298;2023-03-16T01:36:28;1.50;;;1.40;;
6342;SDS011;3204;42.698;23.298;2023-03-16T01:38:53;1.83;;;1.80;;
6342;SDS011;3204;42.698;23.298;2023-03-16T01:41:19;1.40;;;1.40;;
6342;SDS011;3204;42.698;23.298;2023-03-16T01:43:46;1.87;;;1.77;;
6342;SDS011;3204;42.698;23.298;2023-03-16T01:48:57;2.17;;;2.07;;
6342;SDS011;3204;42.698;23.298;2023-03-16T01:51:45;2.90;;;2.80;;
6342;SDS011;3204;42.698;23.298;2023-03-16T01:54:22;3.80;;;3.60;;
6342;SDS011;3204;42.698;23.298;2023-03-16T01:57:25;2.50;;;2.40;;
6342;SDS011;3204;42.698;23.298;2023-03-16T01:59:57;3.23;;;3.03;;
6342;SDS011;3204;42.698;23.298;2023-03-16T02:02:35;3.43;;;3.20;;
6342;SDS011;3204;42.698;23.298;2023-03-16T02:05:05;2.27;;;2.17;;
6342;SDS011;3204;42.698;23.298;2023-03-16T02:07:38;2.20;;;2.10;;
6342;SDS011;3204;42.698;23.298;2023-03-16T02:10:09;1.73;;;1.63;;
6342;SDS011;3204;42.698;23.298;2023-03-16T02:12:36;2.40;;;2.30;;
6342;SDS011;3204;42.698;23.298;2023-03-16T02:15:02;2.40;;;2.30;;
6342;SDS011;3204;42.698;23.298;2023-03-16T02:17:29;3.20;;;2.90;;
6342;SDS011;3204;42.698;23.298;2023-03-16T02:22:44;4.10;;;3.77;;
6342;SDS011;3204;42.698;23.298;2023-03-16T02:25:12;2.70;;;2.60;;
6342;SDS011;3204;42.698;23.298;2023-03-16T02:30:30;6.40;;;5.80;;
6342;SDS011;3204;42.698;23.298;2023-03-16T02:32:56;4.80;;;4.40;;
6342;SDS011;3204;42.698;23.298;2023-03-16T02:35:21;8.13;;;5.67;;
6342;SDS011;3204;42.698;23.298;2023-03-16T02:37:47;11.07;;;5.50;;
6342;SDS011;3204;42.698;23.298;2023-03-16T02:40:18;8.47;;;4.77;;
6342;SDS011;3204;42.698;23.298;2023-03-16T02:42:46;5.47;;;4.47;;
6342;SDS011;3204;42.698;23.298;2023-03-16T02:45:18;9.23;;;5.53;;
6342;SDS011;3204;42.698;23.298;2023-03-16T02:47:45;8.13;;;5.17;;
6342;SDS011;3204;42.698;23.298;2023-03-16T02:50:15;7.33;;;4.33;;
6342;SDS011;3204;42.698;23.298;2023-03-16T02:52:41;3.33;;;3.07;;
6342;SDS011;3204;42.698;23.298;2023-03-16T02:55:06;3.63;;;3.33;;
6342;SDS011;3204;42.698;23.298;2023-03-16T02:57:33;11.50;;;6.47;;
6342;SDS011;3204;42.698;23.298;2023-03-16T02:59:58;9.93;;;5.90;;
6342;SDS011;3204;42.698;23.298;2023-03-16T03:02:25;14.57;;;6.90;;
6342;SDS011;3204;42.698;23.298;2023-03-16T03:04:50;9.03;;;6.13;;
6342;SDS011;3204;42.698;23.298;2023-03-16T03:07:19;13.27;;;6.80;;
6342;SDS011;3204;42.698;23.298;2023-03-16T03:09:45;14.37;;;7.10;;
6342;SDS011;3204;42.698;23.298;2023-03-16T03:12:11;6.37;;;4.10;;
6342;SDS011;3204;42.698;23.298;2023-03-16T03:14:37;14.93;;;6.73;;
6342;SDS011;3204;42.698;23.298;2023-03-16T03:17:04;4.67;;;3.33;;
6342;SDS011;3204;42.698;23.298;2023-03-16T03:19:31;2.87;;;2.67;;
6342;SDS011;3204;42.698;23.298;2023-03-16T03:21:57;3.27;;;2.53;;
6342;SDS011;3204;42.698;23.298;2023-03-16T03:24:23;4.13;;;2.87;;
6342;SDS011;3204;42.698;23.298;2023-03-16T03:26:49;5.33;;;4.80;;
6342;SDS011;3204;42.698;23.298;2023-03-16T03:29:16;3.30;;;2.63;;
6342;SDS011;3204;42.698;23.298;2023-03-16T03:31:41;2.80;;;2.50;;
6342;SDS011;3204;42.698;23.298;2023-03-16T03:34:07;2.50;;;2.30;;
6342;SDS011;3204;42.698;23.298;2023-03-16T03:36:33;2.60;;;2.50;;
6342;SDS011;3204;42.698;23.298;2023-03-16T03:38:59;2.60;;;2.50;;
6342;SDS011;3204;42.698;23.298;2023-03-16T03:41:27;3.93;;;3.63;;
6342;SDS011;3204;42.698;23.298;2023-03-16T03:43:52;1.60;;;1.50;;
6342;SDS011;3204;42.698;23.298;2023-03-16T03:46:18;2.33;;;2.20;;
6342;SDS011;3204;42.698;23.298;2023-03-16T03:48:43;1.50;;;1.50;;
6342;SDS011;3204;42.698;23.298;2023-03-16T03:51:09;2.40;;;2.30;;
6342;SDS011;3204;42.698;23.298;2023-03-16T03:53:34;2.43;;;2.23;;
6342;SDS011;3204;42.698;23.298;2023-03-16T03:55:59;2.47;;;2.33;;
6342;SDS011;3204;42.698;23.298;2023-03-16T03:58:25;2.00;;;1.90;;
6342;SDS011;3204;42.698;23.298;2023-03-16T04:00:50;2.20;;;2.00;;
6342;SDS011;3204;42.698;23.298;2023-03-16T04:03:16;2.80;;;2.60;;
6342;SDS011;3204;42.698;23.298;2023-03-16T04:05:41;3.20;;;3.00;;
6342;SDS011;3204;42.698;23.298;2023-03-16T04:08:07;3.50;;;3.20;;
6342;SDS011;3204;42.698;23.298;2023-03-16T04:10:32;2.37;;;2.27;;
6342;SDS011;3204;42.698;23.298;2023-03-16T04:12:58;3.00;;;2.77;;
6342;SDS011;3204;42.698;23.298;2023-03-16T04:15:24;2.70;;;2.60;;
6342;SDS011;3204;42.698;23.298;2023-03-16T04:17:50;3.57;;;3.37;;
6342;SDS011;3204;42.698;23.298;2023-03-16T04:20:16;2.13;;;2.03;;
6342;SDS011;3204;42.698;23.298;2023-03-16T04:22:44;4.50;;;4.20;;
6342;SDS011;3204;42.698;23.298;2023-03-16T04:25:11;3.80;;;3.60;;
6342;SDS011;3204;42.698;23.298;2023-03-16T04:27:38;3.23;;;3.03;;
6342;SDS011;3204;42.698;23.298;2023-03-16T04:30:05;3.17;;;2.70;;
6342;SDS011;3204;42.698;23.298;2023-03-16T04:32:35;5.03;;;4.73;;
6342;SDS011;3204;42.698;23.298;2023-03-16T04:35:01;3.20;;;3.00;;
6342;SDS011;3204;42.698;23.298;2023-03-16T04:37:27;11.10;;;6.73;;
6342;SDS011;3204;42.698;23.298;2023-03-16T04:39:52;6.43;;;4.60;;
6342;SDS011;3204;42.698;23.298;2023-03-16T04:42:18;5.70;;;4.03;;
6342;SDS011;3204;42.698;23.298;2023-03-16T04:44:43;5.93;;;4.60;;
6342;SDS011;3204;42.698;23.298;2023-03-16T04:47:09;4.17;;;3.87;;
6342;SDS011;3204;42.698;23.298;2023-03-16T04:49:35;2.63;;;2.10;;
6342;SDS011;3204;42.698;23.298;2023-03-16T04:52:01;6.73;;;4.37;;
6342;SDS011;3204;42.698;23.298;2023-03-16T04:54:27;4.40;;;2.73;;
6342;SDS011;3204;42.698;23.298;2023-03-16T04:56:53;8.57;;;5.00;;
6342;SDS011;3204;42.698;23.298;2023-03-16T04:59:18;5.87;;;4.07;;
6342;SDS011;3204;42.698;23.298;2023-03-16T05:01:44;8.83;;;5.50;;
6342;SDS011;3204;42.698;23.298;2023-03-16T05:04:09;3.63;;;3.27;;
6342;SDS011;3204;42.698;23.298;2023-03-16T05:06:34;6.00;;;4.03;;
6342;SDS011;3204;42.698;23.298;2023-03-16T05:09:00;9.03;;;5.07;;
6342;SDS011;3204;42.698;23.298;2023-03-16T05:11:26;7.63;;;5.20;;
6342;SDS011;3204;42.698;23.298;2023-03-16T05:13:52;6.17;;;5.77;;
6342;SDS011;3204;42.698;23.298;2023-03-16T05:16:17;4.30;;;4.00;;
6342;SDS011;3204;42.698;23.298;2023-03-16T05:18:43;2.10;;;2.00;;
6342;SDS011;3204;42.698;23.298;2023-03-16T05:21:08;3.20;;;3.00;;
6342;SDS011;3204;42.698;23.298;2023-03-16T05:23:34;3.20;;;3.00;;
6342;SDS011;3204;42.698;23.298;2023-03-16T05:25:59;3.43;;;3.23;;
6342;SDS011;3204;42.698;23.298;2023-03-16T05:28:25;4.07;;;3.83;;
6342;SDS011;3204;42.698;23.298;2023-03-16T05:30:50;3.57;;;3.43;;
6342;SDS011;3204;42.698;23.298;2023-03-16T05:33:16;6.10;;;4.27;;
6342;SDS011;3204;42.698;23.298;2023-03-16T05:35:41;5.27;;;5.07;;
6342;SDS011;3204;42.698;23.298;2023-03-16T05:38:07;4.87;;;4.57;;
6342;SDS011;3204;42.698;23.298;2023-03-16T05:40:33;5.13;;;4.93;;
6342;SDS011;3204;42.698;23.298;2023-03-16T05:43:01;3.80;;;3.60;;
6342;SDS011;3204;42.698;23.298;2023-03-16T05:45:28;3.63;;;3.33;;
6342;SDS011;3204;42.698;23.298;2023-03-16T05:47:54;4.87;;;4.67;;
6342;SDS011;3204;42.698;23.298;2023-03-16T05:50:20;4.10;;;3.90;;
6342;SDS011;3204;42.698;23.298;2023-03-16T05:52:46;5.10;;;4.77;;
6342;SDS011;3204;42.698;23.298;2023-03-16T05:55:12;8.13;;;7.63;;
6342;SDS011;3204;42.698;23.298;2023-03-16T05:57:39;8.00;;;7.60;;
6342;SDS011;3204;42.698;23.298;2023-03-16T06:00:06;4.17;;;3.97;;
6342;SDS011;3204;42.698;23.298;2023-03-16T06:02:39;3.30;;;3.17;;
6342;SDS011;3204;42.698;23.298;2023-03-16T06:05:08;5.50;;;5.20;;
6342;SDS011;3204;42.698;23.298;2023-03-16T06:07:35;4.27;;;4.07;;
6342;SDS011;3204;42.698;23.298;2023-03-16T06:10:01;7.27;;;6.87;;
6342;SDS011;3204;42.698;23.298;2023-03-16T06:12:26;4.27;;;3.97;;
6342;SDS011;3204;42.698;23.298;2023-03-16T06:14:52;60.10;;;39.03;;
6342;SDS011;3204;42.698;23.298;2023-03-16T06:17:17;17.30;;;15.43;;
6342;SDS011;3204;42.698;23.298;2023-03-16T06:19:43;7.33;;;6.83;;
6342;SDS011;3204;42.698;23.298;2023-03-16T06:22:08;5.80;;;5.33;;
6342;SDS011;3204;42.698;23.298;2023-03-16T06:24:34;4.23;;;3.93;;
6342;SDS011;3204;42.698;23.298;2023-03-16T06:27:00;3.37;;;3.17;;
6342;SDS011;3204;42.698;23.298;2023-03-16T06:29:25;3.87;;;3.63;;
6342;SDS011;3204;42.698;23.298;2023-03-16T06:31:51;5.27;;;4.77;;
6342;SDS011;3204;42.698;23.298;2023-03-16T06:34:18;3.70;;;3.50;;
6342;SDS011;3204;42.698;23.298;2023-03-16T06:36:44;2.60;;;2.50;;
6342;SDS011;3204;42.698;23.298;2023-03-16T06:39:09;3.63;;;3.43;;
6342;SDS011;3204;42.698;23.298;2023-03-16T06:41:35;3.57;;;3.37;;
6342;SDS011;3204;42.698;23.298;2023-03-16T06:44:00;2.53;;;2.37;;
6342;SDS011;3204;42.698;23.298;2023-03-16T06:46:26;2.80;;;2.70;;
6342;SDS011;3204;42.698;23.298;2023-03-16T06:48:52;3.23;;;3.03;;
6342;SDS011;3204;42.698;23.298;2023-03-16T06:51:17;2.50;;;2.30;;
6342;SDS011;3204;42.698;23.298;2023-03-16T06:53:43;2.47;;;2.37;;
6342;SDS011;3204;42.698;23.298;2023-03-16T06:56:09;3.13;;;2.87;;
6342;SDS011;3204;42.698;23.298;2023-03-16T06:58:34;3.83;;;3.60;;
6342;SDS011;3204;42.698;23.298;2023-03-16T07:01:03;4.27;;;3.97;;
6342;SDS011;3204;42.698;23.298;2023-03-16T07:03:29;5.40;;;5.10;;
6342;SDS011;3204;42.698;23.298;2023-03-16T07:05:55;3.90;;;3.70;;
6342;SDS011;3204;42.698;23.298;2023-03-16T07:08:21;4.67;;;4.47;;
6342;SDS011;3204;42.698;23.298;2023-03-16T07:10:46;4.73;;;4.43;;
6342;SDS011;3204;42.698;23.298;2023-03-16T07:13:11;5.93;;;5.43;;
6342;SDS011;3204;42.698;23.298;2023-03-16T07:15:37;5.30;;;5.00;;
6342;SDS011;3204;42.698;23.298;2023-03-16T07:18:03;4.20;;;4.00;;
6342;SDS011;3204;42.698;23.298;2023-03-16T07:20:29;4.30;;;4.00;;
6342;SDS011;3204;42.698;23.298;2023-03-16T07:22:57;5.27;;;4.77;;
6342;SDS011;3204;42.698;23.298;2023-03-16T07:25:22;4.93;;;4.63;;
6342;SDS011;3204;42.698;23.298;2023-03-16T07:27:48;4.93;;;4.37;;
6342;SDS011;3204;42.698;23.298;2023-03-16T07:30:13;4.20;;;4.00;;
6342;SDS011;3204;42.698;23.298;2023-03-16T07:32:40;6.00;;;5.50;;
6342;SDS011;3204;42.698;23.298;2023-03-16T07:35:06;4.37;;;4.07;;
6342;SDS011;3204;42.698;23.298;2023-03-16T07:37:33;7.53;;;6.83;;
6342;SDS011;3204;42.698;23.298;2023-03-16T07:39:59;3.90;;;3.60;;
6342;SDS011;3204;42.698;23.298;2023-03-16T07:42:25;3.50;;;3.33;;
6342;SDS011;3204;42.698;23.298;2023-03-16T07:44:50;3.20;;;2.90;;
6342;SDS011;3204;42.698;23.298;2023-03-16T07:47:16;4.27;;;3.97;;
6342;SDS011;3204;42.698;23.298;2023-03-16T07:49:42;4.00;;;3.70;;
6342;SDS011;3204;42.698;23.298;2023-03-16T07:52:09;3.27;;;3.17;;
6342;SDS011;3204;42.698;23.298;2023-03-16T07:54:38;3.53;;;3.23;;
6342;SDS011;3204;42.698;23.298;2023-03-16T07:57:04;10.47;;;9.40;;
6342;SDS011;3204;42.698;23.298;2023-03-16T07:59:30;15.43;;;14.03;;
6342;SDS011;3204;42.698;23.298;2023-03-16T08:01:56;23.80;;;17.83;;
6342;SDS011;3204;42.698;23.298;2023-03-16T08:04:22;12.63;;;11.37;;
6342;SDS011;3204;42.698;23.298;2023-03-16T08:06:47;8.47;;;7.87;;
6342;SDS011;3204;42.698;23.298;2023-03-16T08:09:13;5.23;;;4.93;;
6342;SDS011;3204;42.698;23.298;2023-03-16T08:11:39;4.40;;;4.10;;
6342;SDS011;3204;42.698;23.298;2023-03-16T08:14:05;6.20;;;5.80;;
6342;SDS011;3204;42.698;23.298;2023-03-16T08:16:31;5.63;;;5.33;;
6342;SDS011;3204;42.698;23.298;2023-03-16T08:18:57;9.20;;;8.50;;
6342;SDS011;3204;42.698;23.298;2023-03-16T08:21:22;7.33;;;6.73;;
6342;SDS011;3204;42.698;23.298;2023-03-16T08:23:48;8.77;;;7.97;;
6342;SDS011;3204;42.698;23.298;2023-03-16T08:26:18;6.53;;;6.13;;
6342;SDS011;3204;42.698;23.298;2023-03-16T08:28:45;3.97;;;3.53;;
6342;SDS011;3204;42.698;23.298;2023-03-16T08:31:11;4.00;;;3.80;;
6342;SDS011;3204;42.698;23.298;2023-03-16T08:33:38;3.63;;;3.30;;
6342;SDS011;3204;42.698;23.298;2023-03-16T08:36:08;2.77;;;2.67;;
6342;SDS011;3204;42.698;23.298;2023-03-16T08:38:35;2.67;;;2.57;;
6342;SDS011;3204;42.698;23.298;2023-03-16T08:41:01;2.30;;;2.20;;
6342;SDS011;3204;42.698;23.298;2023-03-16T08:43:27;3.37;;;3.17;;
6342;SDS011;3204;42.698;23.298;2023-03-16T08:45:52;3.13;;;3.03;;
6342;SDS011;3204;42.698;23.298;2023-03-16T08:48:18;2.37;;;2.27;;
6342;SDS011;3204;42.698;23.298;2023-03-16T08:50:44;6.17;;;5.67;;
6342;SDS011;3204;42.698;23.298;2023-03-16T08:53:11;3.73;;;3.53;;
6342;SDS011;3204;42.698;23.298;2023-03-16T08:55:37;3.47;;;3.27;;
6342;SDS011;3204;42.698;23.298;2023-03-16T08:58:05;2.83;;;2.63;;
6342;SDS011;3204;42.698;23.298;2023-03-16T09:00:31;6.83;;;3.80;;
6342;SDS011;3204;42.698;23.298;2023-03-16T09:02:58;4.30;;;4.00;;
6342;SDS011;3204;42.698;23.298;2023-03-16T09:05:25;4.30;;;3.97;;
6342;SDS011;3204;42.698;23.298;2023-03-16T09:07:51;3.53;;;3.33;;
6342;SDS011;3204;42.698;23.298;2023-03-16T09:10:17;3.97;;;3.77;;
6342;SDS011;3204;42.698;23.298;2023-03-16T09:12:44;3.43;;;3.23;;
6342;SDS011;3204;42.698;23.298;2023-03-16T09:15:10;2.77;;;2.57;;
6342;SDS011;3204;42.698;23.298;2023-03-16T09:17:38;1.73;;;1.73;;
6342;SDS011;3204;42.698;23.298;2023-03-16T09:20:06;2.00;;;1.90;;
6342;SDS011;3204;42.698;23.298;2023-03-16T09:22:34;2.37;;;2.17;;
6342;SDS011;3204;42.698;23.298;2023-03-16T09:25:04;3.60;;;3.40;;
6342;SDS011;3204;42.698;23.298;2023-03-16T09:27:31;5.37;;;4.40;;
6342;SDS011;3204;42.698;23.298;2023-03-16T09:29:57;2.77;;;2.60;;
6342;SDS011;3204;42.698;23.298;2023-03-16T09:32:25;3.00;;;2.80;;
6342;SDS011;3204;42.698;23.298;2023-03-16T09:34:52;3.40;;;3.10;;
6342;SDS011;3204;42.698;23.298;2023-03-16T09:37:18;4.87;;;3.60;;
6342;SDS011;3204;42.698;23.298;2023-03-16T09:39:45;3.67;;;3.47;;
6342;SDS011;3204;42.698;23.298;2023-03-16T09:44:53;4.03;;;3.83;;
6342;SDS011;3204;42.698;23.298;2023-03-16T09:47:31;3.37;;;2.13;;
6342;SDS011;3204;42.698;23.298;2023-03-16T09:49:59;1.90;;;1.80;;
6342;SDS011;3204;42.698;23.298;2023-03-16T09:52:52;3.37;;;3.17;;
6342;SDS011;3204;42.698;23.298;2023-03-16T09:55:34;2.47;;;2.37;;
6342;SDS011;3204;42.698;23.298;2023-03-16T09:58:03;4.17;;;3.87;;
6342;SDS011;3204;42.698;23.298;2023-03-16T10:00:35;2.40;;;2.30;;
6342;SDS011;3204;42.698;23.298;2023-03-16T10:05:42;4.30;;;4.00;;
6342;SDS011;3204;42.698;23.298;2023-03-16T10:14:22;2.70;;;2.60;;
6342;SDS011;3204;42.698;23.298;2023-03-16T10:21:43;6.77;;;5.93;;
6342;SDS011;3204;42.698;23.298;2023-03-16T10:24:47;5.80;;;5.07;;
6342;SDS011;3204;42.698;23.298;2023-03-16T10:27:27;2.50;;;2.40;;
6342;SDS011;3204;42.698;23.298;2023-03-16T10:29:54;3.00;;;2.90;;
6342;SDS011;3204;42.698;23.298;2023-03-16T10:32:20;3.60;;;3.50;;
6342;SDS011;3204;42.698;23.298;2023-03-16T10:34:52;3.63;;;3.43;;
6342;SDS011;3204;42.698;23.298;2023-03-16T10:37:22;4.17;;;3.97;;
6342;SDS011;3204;42.698;23.298;2023-03-16T10:39:48;2.60;;;2.50;;
6342;SDS011;3204;42.698;23.298;2023-03-16T10:42:15;2.70;;;2.60;;
6342;SDS011;3204;42.698;23.298;2023-03-16T10:44:42;3.20;;;3.10;;
6342;SDS011;3204;42.698;23.298;2023-03-16T10:47:17;3.77;;;3.50;;
6342;SDS011;3204;42.698;23.298;2023-03-16T10:49:48;5.60;;;5.10;;
6342;SDS011;3204;42.698;23.298;2023-03-16T10:52:23;3.20;;;3.00;;
6342;SDS011;3204;42.698;23.298;2023-03-16T10:55:18;3.50;;;3.30;;
6342;SDS011;3204;42.698;23.298;2023-03-16T10:57:49;2.80;;;2.70;;
6342;SDS011;3204;42.698;23.298;2023-03-16T11:02:47;5.90;;;5.50;;
6342;SDS011;3204;42.698;23.298;2023-03-16T11:08:01;3.03;;;2.93;;
6342;SDS011;3204;42.698;23.298;2023-03-16T11:10:38;3.73;;;3.53;;
6342;SDS011;3204;42.698;23.298;2023-03-16T11:13:13;3.20;;;3.10;;
6342;SDS011;3204;42.698;23.298;2023-03-16T11:15:52;3.60;;;3.40;;
6342;SDS011;3204;42.698;23.298;2023-03-16T11:20:51;3.97;;;3.20;;
6342;SDS011;3204;42.698;23.298;2023-03-16T11:23:20;3.30;;;3.20;;
6342;SDS011;3204;42.698;23.298;2023-03-16T11:25:53;4.87;;;4.57;;
6342;SDS011;3204;42.698;23.298;2023-03-16T11:33:32;3.60;;;3.50;;
6342;SDS011;3204;42.698;23.298;2023-03-16T11:41:41;5.40;;;4.63;;
6342;SDS011;3204;42.698;23.298;2023-03-16T11:44:25;7.47;;;6.77;;
6342;SDS011;3204;42.698;23.298;2023-03-16T11:58:02;4.83;;;4.60;;
6342;SDS011;3204;42.698;23.298;2023-03-16T12:00:51;4.60;;;4.40;;
6342;SDS011;3204;42.698;23.298;2023-03-16T12:06:56;4.83;;;4.53;;
6342;SDS011;3204;42.698;23.298;2023-03-16T12:17:59;7.23;;;6.83;;
6342;SDS011;3204;42.698;23.298;2023-03-16T12:20:46;10.10;;;9.20;;
6342;SDS011;3204;42.698;23.298;2023-03-16T12:23:15;7.80;;;7.30;;
6342;SDS011;3204;42.698;23.298;2023-03-16T12:25:47;8.60;;;7.90;;
6342;SDS011;3204;42.698;23.298;2023-03-16T12:28:24;7.97;;;7.37;;
6342;SDS011;3204;42.698;23.298;2023-03-16T12:31:05;5.43;;;4.63;;
6342;SDS011;3204;42.698;23.298;2023-03-16T12:33:39;6.67;;;6.07;;
6342;SDS011;3204;42.698;23.298;2023-03-16T12:48:22;6.60;;;5.93;;
6342;SDS011;3204;42.698;23.298;2023-03-16T12:50:59;10.03;;;9.20;;
6342;SDS011;3204;42.698;23.298;2023-03-16T12:53:28;10.30;;;9.60;;
6342;SDS011;3204;42.698;23.298;2023-03-16T12:56:05;7.40;;;6.90;;
6342;SDS011;3204;42.698;23.298;2023-03-16T12:58:34;5.20;;;4.90;;
6342;SDS011;3204;42.698;23.298;2023-03-16T13:03:57;7.07;;;6.57;;
6342;SDS011;3204;42.698;23.298;2023-03-16T13:06:30;6.00;;;5.43;;
6342;SDS011;3204;42.698;23.298;2023-03-16T13:08:59;13.37;;;12.13;;
6342;SDS011;3204;42.698;23.298;2023-03-16T13:11:28;9.30;;;8.57;;
6342;SDS011;3204;42.698;23.298;2023-03-16T13:14:08;11.10;;;10.00;;
6342;SDS011;3204;42.698;23.298;2023-03-16T13:16:37;12.23;;;11.03;;
6342;SDS011;3204;42.698;23.298;2023-03-16T13:19:22;11.83;;;10.80;;
6342;SDS011;3204;42.698;23.298;2023-03-16T13:21:59;12.17;;;10.97;;
6342;SDS011;3204;42.698;23.298;2023-03-16T13:24:53;8.93;;;8.10;;
6342;SDS011;3204;42.698;23.298;2023-03-16T13:27:27;8.33;;;7.63;;
6342;SDS011;3204;42.698;23.298;2023-03-16T13:29:58;10.70;;;9.70;;
6342;SDS011;3204;42.698;23.298;2023-03-16T13:32:29;13.20;;;11.97;;
6342;SDS011;3204;42.698;23.298;2023-03-16T13:34:57;9.33;;;8.37;;
6342;SDS011;3204;42.698;23.298;2023-03-16T13:37:25;6.93;;;6.30;;
6342;SDS011;3204;42.698;23.298;2023-03-16T13:40:02;6.67;;;6.27;;
6342;SDS011;3204;42.698;23.298;2023-03-16T13:42:32;7.37;;;6.77;;
6342;SDS011;3204;42.698;23.298;2023-03-16T13:44:58;7.47;;;7.00;;
6342;SDS011;3204;42.698;23.298;2023-03-16T13:47:40;9.30;;;8.60;;
6342;SDS011;3204;42.698;23.298;2023-03-16T13:50:09;9.10;;;8.40;;
6342;SDS011;3204;42.698;23.298;2023-03-16T13:52:36;8.13;;;7.53;;
6342;SDS011;3204;42.698;23.298;2023-03-16T13:55:09;11.23;;;10.30;;
6342;SDS011;3204;42.698;23.298;2023-03-16T13:57:40;12.17;;;10.30;;
6342;SDS011;3204;42.698;23.298;2023-03-16T14:00:21;8.77;;;8.17;;
6342;SDS011;3204;42.698;23.298;2023-03-16T14:02:53;11.30;;;10.20;;
6342;SDS011;3204;42.698;23.298;2023-03-16T14:05:22;12.03;;;10.57;;
6342;SDS011;3204;42.698;23.298;2023-03-16T14:07:56;9.70;;;9.00;;
6342;SDS011;3204;42.698;23.298;2023-03-16T14:10:26;10.63;;;9.70;;
6342;SDS011;3204;42.698;23.298;2023-03-16T14:18:36;9.07;;;8.20;;
6342;SDS011;3204;42.698;23.298;2023-03-16T14:21:06;9.00;;;8.30;;
6342;SDS011;3204;42.698;23.298;2023-03-16T14:23:43;10.50;;;9.40;;
6342;SDS011;3204;42.698;23.298;2023-03-16T14:26:14;9.60;;;8.90;;
6342;SDS011;3204;42.698;23.298;2023-03-16T14:31:32;11.80;;;10.73;;
6342;SDS011;3204;42.698;23.298;2023-03-16T14:34:03;9.90;;;9.00;;
6342;SDS011;3204;42.698;23.298;2023-03-16T14:36:34;8.63;;;7.80;;
6342;SDS011;3204;42.698;23.298;2023-03-16T14:39:14;11.03;;;10.07;;
6342;SDS011;3204;42.698;23.298;2023-03-16T14:41:43;19.27;;;13.60;;
6342;SDS011;3204;42.698;23.298;2023-03-16T14:44:27;17.90;;;12.67;;
6342;SDS011;3204;42.698;23.298;2023-03-16T14:46:56;15.73;;;11.93;;
6342;SDS011;3204;42.698;23.298;2023-03-16T14:49:24;10.87;;;9.90;;
6342;SDS011;3204;42.698;23.298;2023-03-16T14:51:53;11.13;;;10.10;;
6342;SDS011;3204;42.698;23.298;2023-03-16T14:54:22;9.00;;;8.30;;
6342;SDS011;3204;42.698;23.298;2023-03-16T14:56:49;9.43;;;8.70;;
6342;SDS011;3204;42.698;23.298;2023-03-16T14:59:22;9.07;;;8.17;;
6342;SDS011;3204;42.698;23.298;2023-03-16T15:01:48;8.80;;;8.20;;
6342;SDS011;3204;42.698;23.298;2023-03-16T15:04:16;9.87;;;9.10;;
6342;SDS011;3204;42.698;23.298;2023-03-16T15:06:44;8.53;;;7.87;;
6342;SDS011;3204;42.698;23.298;2023-03-16T15:09:21;9.43;;;8.57;;
6342;SDS011;3204;42.698;23.298;2023-03-16T15:12:00;9.80;;;8.77;;
6342;SDS011;3204;42.698;23.298;2023-03-16T15:14:27;9.47;;;8.77;;
6342;SDS011;3204;42.698;23.298;2023-03-16T15:17:11;12.60;;;11.30;;
6342;SDS011;3204;42.698;23.298;2023-03-16T15:19:36;12.27;;;11.03;;
6342;SDS011;3204;42.698;23.298;2023-03-16T15:22:02;13.27;;;11.57;;
6342;SDS011;3204;42.698;23.298;2023-03-16T15:24:29;11.77;;;10.57;;
6342;SDS011;3204;42.698;23.298;2023-03-16T15:26:57;19.07;;;13.43;;
6342;SDS011;3204;42.698;23.298;2023-03-16T15:29:23;19.67;;;12.77;;
6342;SDS011;3204;42.698;23.298;2023-03-16T15:31:48;24.00;;;13.87;;
6342;SDS011;3204;42.698;23.298;2023-03-16T15:34:14;13.03;;;11.73;;
6342;SDS011;3204;42.698;23.298;2023-03-16T15:36:41;10.67;;;9.57;;
6342;SDS011;3204;42.698;23.298;2023-03-16T15:39:08;13.43;;;11.30;;
6342;SDS011;3204;42.698;23.298;2023-03-16T15:41:40;11.17;;;10.07;;
6342;SDS011;3204;42.698;23.298;2023-03-16T15:44:10;13.67;;;12.23;;
6342;SDS011;3204;42.698;23.298;2023-03-16T15:46:36;11.73;;;10.43;;
6342;SDS011;3204;42.698;23.298;2023-03-16T15:49:02;10.80;;;9.77;;
6342;SDS011;3204;42.698;23.298;2023-03-16T15:51:28;9.90;;;9.17;;
6342;SDS011;3204;42.698;23.298;2023-03-16T15:53:56;11.03;;;9.93;;
6342;SDS011;3204;42.698;23.298;2023-03-16T15:56:26;12.40;;;11.17;;
6342;SDS011;3204;42.698;23.298;2023-03-16T15:58:54;11.97;;;10.73;;
6342;SDS011;3204;42.698;23.298;2023-03-16T16:01:25;13.17;;;11.80;;
6342;SDS011;3204;42.698;23.298;2023-03-16T16:03:52;22.70;;;14.37;;
6342;SDS011;3204;42.698;23.298;2023-03-16T16:06:19;21.97;;;14.07;;
6342;SDS011;3204;42.698;23.298;2023-03-16T16:08:45;22.33;;;15.13;;
6342;SDS011;3204;42.698;23.298;2023-03-16T16:11:28;21.87;;;14.17;;
6342;SDS011;3204;42.698;23.298;2023-03-16T16:13:55;17.33;;;13.10;;
6342;SDS011;3204;42.698;23.298;2023-03-16T16:16:22;22.50;;;15.47;;
6342;SDS011;3204;42.698;23.298;2023-03-16T16:18:49;16.33;;;12.87;;
6342;SDS011;3204;42.698;23.298;2023-03-16T16:21:20;10.77;;;9.77;;
6342;SDS011;3204;42.698;23.298;2023-03-16T16:23:47;17.73;;;12.77;;
6342;SDS011;3204;42.698;23.298;2023-03-16T16:26:58;22.17;;;14.97;;
6342;SDS011;3204;42.698;23.298;2023-03-16T16:29:12;25.13;;;15.40;;
6342;SDS011;3204;42.698;23.298;2023-03-16T16:31:39;19.70;;;12.20;;
6342;SDS011;3204;42.698;23.298;2023-03-16T16:34:12;21.90;;;15.47;;
6342;SDS011;3204;42.698;23.298;2023-03-16T16:36:39;14.30;;;12.30;;
6342;SDS011;3204;42.698;23.298;2023-03-16T16:39:04;12.93;;;11.63;;